createdAt,value
2019-01-24T00:00:29.741Z,99.99
2019-01-24T00:01:29.714Z,99.99
2019-01-24T00:02:29.716Z,99.99
2019-01-24T00:03:29.720Z,99.99
2019-01-24T00:04:29.665Z,99.99
2019-01-24T00:05:29.650Z,99.99
2019-01-24T00:06:29.650Z,99.99
2019-01-24T00:07:29.623Z,99.99
2019-01-24T00:08:29.356Z,99.99
2019-01-24T00:09:29.341Z,99.99
2019-01-24T00:10:29.579Z,99.99
2019-01-24T00:11:29.569Z,99.99
2019-01-24T00:12:29.575Z,99.99
2019-01-24T00:13:29.543Z,99.99
2019-01-24T00:14:29.574Z,99.99
2019-01-24T00:15:29.266Z,99.99
2019-01-24T00:16:29.262Z,99.99
2019-01-24T00:17:29.243Z,99.99
2019-01-24T00:18:29.498Z,99.99
2019-01-24T00:19:29.506Z,99.99
2019-01-24T00:20:29.438Z,99.99
2019-01-24T00:21:29.185Z,99.99
2019-01-24T00:22:29.408Z,99.99
2019-01-24T00:23:29.396Z,99.99
2019-01-24T00:24:29.382Z,99.99
2019-01-24T00:25:29.128Z,99.99
2019-01-24T00:26:29.106Z,99.99
2019-01-24T00:27:29.351Z,99.99
2019-01-24T00:28:29.331Z,99.99
2019-01-24T00:29:29.308Z,99.99
2019-01-24T00:30:29.294Z,99.99
2019-01-24T00:31:29.032Z,99.99
2019-01-24T00:32:29.268Z,99.99
2019-01-24T00:33:29.258Z,99.99
2019-01-24T00:34:29.233Z,99.99
2019-01-24T00:35:29.227Z,99.99
2019-01-24T00:36:28.964Z,99.99
2019-01-24T00:37:29.200Z,99.99
2019-01-24T00:38:28.944Z,99.99
2019-01-24T00:39:29.173Z,99.99
2019-01-24T00:40:29.200Z,99.99
2019-01-24T00:41:29.148Z,99.99
2019-01-24T00:42:28.882Z,99.99
2019-01-24T00:43:29.122Z,99.99
2019-01-24T00:44:29.111Z,99.99
2019-01-24T00:45:29.090Z,99.99
2019-01-24T00:46:29.076Z,99.99
2019-01-24T00:47:29.063Z,99.99
2019-01-24T00:48:29.065Z,99.99
2019-01-24T00:49:29.033Z,99.99
2019-01-24T00:50:29.013Z,99.99
2019-01-24T00:51:29.023Z,99.99
2019-01-24T00:52:28.740Z,99.99
2019-01-24T00:53:28.969Z,99.99
2019-01-24T00:54:28.963Z,99.99
2019-01-24T00:55:28.943Z,99.99
2019-01-24T00:56:28.685Z,99.99
2019-01-24T00:57:28.672Z,99.99
2019-01-24T00:58:28.899Z,99.99
2019-01-24T00:59:28.655Z,99.99
2019-01-24T01:00:28.637Z,99.99
2019-01-24T01:01:28.859Z,99.99
2019-01-24T01:02:28.846Z,99.99
2019-01-24T01:03:28.831Z,99.99
2019-01-24T01:04:32.133Z,99.99
2019-01-24T01:05:28.804Z,99.99
2019-01-24T01:06:28.540Z,99.99
2019-01-24T01:07:28.784Z,99.99
2019-01-24T01:08:28.754Z,99.99
2019-01-24T01:09:28.495Z,99.99
2019-01-24T01:10:28.742Z,99.99
2019-01-24T01:11:28.725Z,99.99
2019-01-24T01:12:28.699Z,99.99
2019-01-24T01:13:28.691Z,99.99
2019-01-24T01:14:28.688Z,99.99
2019-01-24T01:15:28.425Z,99.99
2019-01-24T01:16:28.396Z,99.99
2019-01-24T01:17:28.640Z,99.99
2019-01-24T01:18:28.612Z,99.99
2019-01-24T01:19:28.594Z,99.99
2019-01-24T01:20:28.581Z,99.99
2019-01-24T01:21:28.595Z,99.99
2019-01-24T01:22:28.304Z,99.99
2019-01-24T01:23:28.539Z,99.99
2019-01-24T01:24:28.532Z,99.99
2019-01-24T01:25:28.265Z,99.99
2019-01-24T01:26:28.504Z,99.99
2019-01-24T01:27:28.246Z,99.99
2019-01-24T01:28:28.258Z,99.99
2019-01-24T01:29:28.465Z,99.99
2019-01-24T01:30:28.205Z,99.99
2019-01-24T01:31:28.189Z,99.99
2019-01-24T01:32:28.417Z,99.99
2019-01-24T01:33:28.406Z,99.99
2019-01-24T01:34:28.402Z,99.99
2019-01-24T01:35:28.379Z,99.99
2019-01-24T01:36:28.117Z,99.99
2019-01-24T01:37:28.352Z,99.99
2019-01-24T01:38:28.339Z,99.99
2019-01-24T01:39:28.326Z,99.99
2019-01-24T01:40:28.342Z,99.99
2019-01-24T01:41:28.292Z,99.99
2019-01-24T01:42:28.286Z,99.99
2019-01-24T01:43:28.271Z,99.99
2019-01-24T01:44:28.001Z,99.99
2019-01-24T01:45:28.258Z,99.99
2019-01-24T01:46:27.979Z,99.99
2019-01-24T01:47:28.220Z,99.99
2019-01-24T01:48:27.942Z,99.99
2019-01-24T01:49:28.194Z,99.99
2019-01-24T01:50:28.173Z,99.99
2019-01-24T01:51:28.157Z,99.99
2019-01-24T01:52:27.893Z,99.99
2019-01-24T01:53:28.125Z,99.99
2019-01-24T01:54:27.861Z,99.99
2019-01-24T01:55:28.117Z,99.99
2019-01-24T01:56:28.095Z,99.99
2019-01-24T01:57:27.823Z,99.99
2019-01-24T01:58:27.808Z,99.99
2019-01-24T01:59:27.804Z,99.99
2019-01-24T02:00:28.026Z,99.99
2019-01-24T02:01:27.782Z,99.99
2019-01-24T02:02:27.996Z,99.99
2019-01-24T02:03:27.740Z,99.99
2019-01-24T02:04:27.994Z,99.99
2019-01-24T02:05:27.973Z,99.99
2019-01-24T02:06:27.947Z,99.99
2019-01-24T02:07:27.689Z,99.99
2019-01-24T02:08:27.937Z,99.99
2019-01-24T02:09:27.900Z,99.99
2019-01-24T02:10:27.894Z,99.99
2019-01-24T02:11:27.626Z,99.99
2019-01-24T02:12:27.861Z,99.99
2019-01-24T02:13:27.859Z,99.99
2019-01-24T02:14:27.839Z,99.99
2019-01-24T02:15:27.817Z,99.99
2019-01-24T02:16:27.814Z,99.99
2019-01-24T02:17:27.800Z,99.99
2019-01-24T02:18:27.802Z,99.99
2019-01-24T02:19:27.779Z,99.99
2019-01-24T02:20:27.515Z,99.99
2019-01-24T02:21:27.741Z,99.99
2019-01-24T02:22:27.495Z,99.99
2019-01-24T02:23:27.703Z,99.99
2019-01-24T02:24:27.697Z,99.99
2019-01-24T02:25:27.683Z,99.99
2019-01-24T02:26:27.669Z,99.99
2019-01-24T02:27:27.654Z,99.99
2019-01-24T02:28:27.404Z,99.99
2019-01-24T02:29:27.626Z,99.99
2019-01-24T02:30:27.634Z,99.99
2019-01-24T02:31:27.366Z,99.99
2019-01-24T02:32:27.583Z,99.99
2019-01-24T02:33:27.571Z,99.99
2019-01-24T02:34:27.560Z,99.99
2019-01-24T02:35:27.800Z,99.99
2019-01-24T02:36:27.542Z,99.99
2019-01-24T02:37:27.529Z,99.99
2019-01-24T02:38:27.516Z,99.99
2019-01-24T02:39:27.258Z,99.99
2019-01-24T02:40:27.494Z,99.99
2019-01-24T02:41:27.215Z,99.99
2019-01-24T02:42:27.465Z,99.99
2019-01-24T02:43:27.443Z,99.99
2019-01-24T02:44:27.421Z,99.99
2019-01-24T02:45:27.401Z,99.99
2019-01-24T02:46:27.136Z,99.99
2019-01-24T02:47:27.122Z,99.99
2019-01-24T02:48:27.114Z,99.99
2019-01-24T02:49:27.363Z,99.99
2019-01-24T02:50:27.097Z,99.99
2019-01-24T02:51:27.069Z,99.99
2019-01-24T02:52:27.313Z,99.99
2019-01-24T02:53:27.307Z,99.99
2019-01-24T02:54:27.349Z,99.99
2019-01-24T02:55:27.279Z,99.99
2019-01-24T02:56:27.019Z,99.99
2019-01-24T02:57:26.994Z,99.99
2019-01-24T02:58:27.217Z,99.99
2019-01-24T02:59:27.203Z,99.99
2019-01-24T03:00:27.189Z,99.99
2019-01-24T03:01:27.185Z,99.99
2019-01-24T03:02:27.158Z,99.99
2019-01-24T03:03:26.907Z,99.99
2019-01-24T03:04:27.137Z,99.99
2019-01-24T03:05:27.151Z,99.99
2019-01-24T03:06:26.874Z,99.99
2019-01-24T03:07:27.096Z,99.99
2019-01-24T03:08:27.094Z,99.99
2019-01-24T03:09:27.070Z,99.99
2019-01-24T03:10:26.828Z,99.99
2019-01-24T03:11:27.034Z,99.99
2019-01-24T03:12:26.780Z,99.99
2019-01-24T03:13:27.027Z,99.99
2019-01-24T03:14:27.268Z,99.99
2019-01-24T03:15:26.981Z,99.99
2019-01-24T03:16:26.981Z,99.99
2019-01-24T03:17:26.957Z,99.99
2019-01-24T03:18:26.937Z,99.99
2019-01-24T03:19:26.923Z,99.99
2019-01-24T03:20:26.914Z,99.99
2019-01-24T03:21:26.667Z,99.99
2019-01-24T03:22:26.648Z,99.99
2019-01-24T03:23:26.867Z,99.99
2019-01-24T03:24:26.853Z,99.99
2019-01-24T03:25:26.838Z,99.99
2019-01-24T03:26:26.835Z,99.99
2019-01-24T03:27:26.555Z,99.99
2019-01-24T03:28:26.792Z,99.99
2019-01-24T03:29:26.537Z,99.99
2019-01-24T03:30:26.764Z,99.99
2019-01-24T03:31:26.784Z,99.99
2019-01-24T03:32:26.801Z,99.99
2019-01-24T03:33:26.720Z,99.99
2019-01-24T03:34:26.463Z,99.99
2019-01-24T03:35:26.447Z,99.99
2019-01-24T03:36:26.695Z,99.99
2019-01-24T03:37:26.668Z,99.99
2019-01-24T03:38:26.664Z,99.99
2019-01-24T03:39:26.398Z,99.99
2019-01-24T03:40:26.688Z,99.99
2019-01-24T03:41:26.370Z,99.99
2019-01-24T03:42:26.594Z,99.99
2019-01-24T03:43:26.328Z,99.99
2019-01-24T03:44:26.598Z,99.99
2019-01-24T03:45:26.558Z,99.99
2019-01-24T03:46:26.540Z,99.99
2019-01-24T03:47:26.523Z,99.99
2019-01-24T03:48:26.509Z,99.99
2019-01-24T03:49:26.504Z,99.99
2019-01-24T03:50:26.228Z,99.99
2019-01-24T03:51:26.478Z,99.99
2019-01-24T03:52:26.225Z,99.99
2019-01-24T03:53:26.197Z,99.99
2019-01-24T03:54:26.424Z,99.99
2019-01-24T03:55:26.169Z,99.99
2019-01-24T03:56:26.173Z,99.99
2019-01-24T03:57:26.153Z,99.99
2019-01-24T03:58:26.116Z,99.99
2019-01-24T03:59:26.352Z,99.99
2019-01-24T04:00:26.381Z,99.99
2019-01-24T04:01:26.323Z,99.99
2019-01-24T04:02:26.312Z,99.99
2019-01-24T04:03:26.062Z,99.99
2019-01-24T04:04:26.281Z,99.99
2019-01-24T04:05:26.274Z,99.99
2019-01-24T04:06:26.261Z,99.99
2019-01-24T04:07:26.240Z,99.99
2019-01-24T04:08:26.225Z,99.99
2019-01-24T04:09:26.213Z,99.99
2019-01-24T04:10:25.952Z,99.99
2019-01-24T04:11:26.193Z,99.99
2019-01-24T04:12:25.931Z,99.99
2019-01-24T04:13:26.175Z,99.99
2019-01-24T04:14:26.134Z,99.99
2019-01-24T04:15:26.155Z,99.99
2019-01-24T04:16:26.111Z,99.99
2019-01-24T04:17:25.857Z,99.99
2019-01-24T04:18:26.089Z,99.99
2019-01-24T04:19:26.073Z,99.99
2019-01-24T04:20:26.074Z,99.99
2019-01-24T04:21:25.792Z,99.99
2019-01-24T04:22:26.037Z,99.99
2019-01-24T04:23:25.760Z,99.99
2019-01-24T04:24:25.746Z,99.99
2019-01-24T04:25:25.757Z,99.99
2019-01-24T04:26:25.727Z,99.99
2019-01-24T04:27:25.955Z,99.99
2019-01-24T04:28:25.950Z,99.99
2019-01-24T04:29:25.929Z,99.99
2019-01-24T04:30:25.923Z,99.99
2019-01-24T04:31:25.897Z,99.99
2019-01-24T04:32:25.888Z,99.99
2019-01-24T04:33:25.870Z,99.99
2019-01-24T04:34:25.607Z,99.99
2019-01-24T04:35:25.838Z,99.99
2019-01-24T04:36:26.624Z,99.99
2019-01-24T04:37:25.806Z,99.99
2019-01-24T04:38:25.796Z,99.99
2019-01-24T04:39:25.529Z,99.99
2019-01-24T04:40:25.775Z,99.99
2019-01-24T04:41:25.749Z,99.99
2019-01-24T04:42:25.749Z,99.99
2019-01-24T04:43:25.723Z,99.99
2019-01-24T04:44:25.461Z,99.99
2019-01-24T04:45:25.690Z,99.99
2019-01-24T04:46:25.712Z,99.99
2019-01-24T04:47:25.424Z,99.99
2019-01-24T04:48:25.668Z,99.99
2019-01-24T04:49:25.422Z,99.99
2019-01-24T04:50:25.616Z,99.99
2019-01-24T04:51:25.608Z,99.99
2019-01-24T04:52:25.598Z,99.99
2019-01-24T04:53:25.578Z,99.99
2019-01-24T04:54:25.558Z,99.99
2019-01-24T04:55:25.555Z,99.99
2019-01-24T04:56:25.542Z,99.99
2019-01-24T04:57:25.515Z,99.99
2019-01-24T04:58:25.266Z,99.99
2019-01-24T04:59:25.498Z,99.99
2019-01-24T05:00:25.475Z,99.99
2019-01-24T05:01:25.226Z,99.99
2019-01-24T05:02:25.226Z,99.99
2019-01-24T05:03:25.433Z,99.99
2019-01-24T05:04:25.434Z,99.99
2019-01-24T05:05:30.231Z,99.99
2019-01-24T05:06:25.146Z,99.99
2019-01-24T05:07:25.391Z,99.99
2019-01-24T05:08:25.358Z,99.99
2019-01-24T05:09:25.357Z,99.99
2019-01-24T05:10:25.089Z,99.99
2019-01-24T05:11:25.070Z,99.99
2019-01-24T05:12:25.071Z,99.99
2019-01-24T05:13:25.285Z,99.99
2019-01-24T05:14:25.276Z,99.99
2019-01-24T05:15:25.043Z,99.99
2019-01-24T05:16:25.250Z,99.99
2019-01-24T05:17:25.924Z,99.99
2019-01-24T05:18:24.970Z,99.99
2019-01-24T05:19:25.218Z,99.99
2019-01-24T05:20:24.946Z,99.99
2019-01-24T05:21:25.168Z,99.99
2019-01-24T05:22:25.169Z,99.99
2019-01-24T05:23:25.155Z,99.99
2019-01-24T05:24:25.135Z,99.99
2019-01-24T05:25:24.878Z,99.99
2019-01-24T05:26:25.119Z,99.99
2019-01-24T05:27:24.835Z,99.99
2019-01-24T05:28:24.828Z,99.99
2019-01-24T05:29:25.072Z,99.99
2019-01-24T05:30:25.063Z,99.99
2019-01-24T05:31:25.047Z,99.99
2019-01-24T05:32:25.029Z,99.99
2019-01-24T05:33:25.014Z,99.99
2019-01-24T05:34:25.006Z,99.99
2019-01-24T05:35:24.980Z,99.99
2019-01-24T05:36:24.971Z,99.99
2019-01-24T05:37:24.955Z,99.99
2019-01-24T05:38:24.943Z,99.99
2019-01-24T05:39:24.926Z,99.99
2019-01-24T05:40:24.899Z,99.99
2019-01-24T05:41:24.893Z,99.99
2019-01-24T05:42:24.622Z,99.99
2019-01-24T05:43:24.618Z,99.99
2019-01-24T05:44:24.873Z,99.99
2019-01-24T05:45:24.830Z,99.99
2019-01-24T05:46:24.589Z,99.99
2019-01-24T05:47:24.813Z,99.99
2019-01-24T05:48:24.798Z,99.99
2019-01-24T05:49:24.769Z,99.99
2019-01-24T05:50:24.756Z,99.99
2019-01-24T05:51:24.739Z,99.99
2019-01-24T05:52:24.516Z,99.99
2019-01-24T05:53:24.724Z,99.99
2019-01-24T05:54:24.707Z,99.99
2019-01-24T05:55:24.432Z,99.99
2019-01-24T05:56:24.680Z,99.99
2019-01-24T05:57:24.659Z,99.99
2019-01-24T05:58:24.387Z,99.99
2019-01-24T05:59:24.633Z,99.99
2019-01-24T06:00:24.610Z,99.99
2019-01-24T06:01:24.351Z,99.99
2019-01-24T06:02:24.331Z,99.99
2019-01-24T06:03:24.578Z,99.99
2019-01-24T06:04:24.322Z,99.99
2019-01-24T06:05:24.555Z,99.99
2019-01-24T06:06:24.285Z,99.99
2019-01-24T06:07:25.901Z,99.99
2019-01-24T06:08:24.493Z,99.99
2019-01-24T06:09:24.239Z,99.99
2019-01-24T06:10:24.468Z,99.99
2019-01-24T06:11:24.216Z,99.99
2019-01-24T06:12:24.452Z,99.99
2019-01-24T06:13:24.182Z,99.99
2019-01-24T06:14:24.168Z,99.99
2019-01-24T06:15:24.401Z,99.99
2019-01-24T06:16:24.383Z,99.99
2019-01-24T06:17:24.125Z,99.99
2019-01-24T06:18:24.110Z,99.99
2019-01-24T06:19:24.353Z,99.99
2019-01-24T06:20:24.316Z,99.99
2019-01-24T06:21:24.117Z,99.99
2019-01-24T06:22:24.342Z,99.99
2019-01-24T06:23:24.311Z,99.99
2019-01-24T06:24:24.018Z,99.99
2019-01-24T06:25:24.020Z,99.99
2019-01-24T06:26:24.239Z,99.99
2019-01-24T06:27:24.237Z,99.99
2019-01-24T06:28:23.959Z,99.99
2019-01-24T06:29:24.200Z,99.99
2019-01-24T06:30:24.192Z,99.99
2019-01-24T06:31:24.186Z,99.99
2019-01-24T06:32:24.155Z,99.99
2019-01-24T06:33:24.148Z,99.99
2019-01-24T06:34:24.120Z,99.99
2019-01-24T06:35:24.106Z,99.99
2019-01-24T06:36:24.121Z,99.99
2019-01-24T06:37:24.105Z,99.99
2019-01-24T06:38:23.813Z,99.99
2019-01-24T06:39:24.045Z,99.99
2019-01-24T06:40:24.101Z,99.99
2019-01-24T06:41:24.019Z,99.99
2019-01-24T06:42:23.756Z,99.99
2019-01-24T06:43:23.737Z,99.99
2019-01-24T06:44:23.972Z,99.99
2019-01-24T06:45:23.958Z,99.99
2019-01-24T06:46:23.955Z,99.99
2019-01-24T06:47:23.934Z,99.99
2019-01-24T06:48:23.681Z,99.99
2019-01-24T06:49:23.911Z,99.99
2019-01-24T06:50:23.888Z,99.99
2019-01-24T06:51:23.874Z,99.99
2019-01-24T06:52:23.611Z,99.99
2019-01-24T06:53:23.844Z,99.99
2019-01-24T06:54:24.616Z,99.99
2019-01-24T06:55:23.822Z,99.99
2019-01-24T06:56:23.575Z,99.99
2019-01-24T06:57:23.549Z,99.99
2019-01-24T06:58:23.524Z,99.99
2019-01-24T06:59:23.526Z,99.99
2019-01-24T07:00:23.740Z,99.99
2019-01-24T07:01:23.485Z,99.99
2019-01-24T07:02:23.708Z,99.99
2019-01-24T07:03:23.451Z,99.99
2019-01-24T07:04:23.681Z,99.99
2019-01-24T07:05:23.673Z,99.99
2019-01-24T07:06:23.649Z,99.99
2019-01-24T07:07:23.638Z,99.99
2019-01-24T07:08:23.623Z,99.99
2019-01-24T07:09:23.623Z,99.99
2019-01-24T07:10:23.607Z,99.99
2019-01-24T07:11:23.597Z,99.99
2019-01-24T07:12:23.567Z,99.99
2019-01-24T07:13:23.308Z,99.99
2019-01-24T07:14:23.552Z,99.99
2019-01-24T07:15:23.277Z,99.99
2019-01-24T07:16:23.506Z,99.99
2019-01-24T07:17:23.248Z,99.99
2019-01-24T07:18:23.231Z,99.99
2019-01-24T07:19:23.483Z,99.99
2019-01-24T07:20:23.464Z,99.99
2019-01-24T07:21:23.441Z,99.99
2019-01-24T07:22:23.419Z,99.99
2019-01-24T07:23:23.417Z,99.99
2019-01-24T07:24:23.931Z,99.99
2019-01-24T07:25:23.132Z,99.99
2019-01-24T07:26:23.123Z,99.99
2019-01-24T07:27:23.354Z,99.99
2019-01-24T07:28:23.340Z,99.99
2019-01-24T07:29:23.083Z,99.99
2019-01-24T07:30:23.065Z,99.99
2019-01-24T07:31:23.308Z,99.99
2019-01-24T07:32:23.040Z,99.99
2019-01-24T07:33:23.274Z,99.99
2019-01-24T07:34:23.266Z,99.99
2019-01-24T07:35:23.256Z,99.99
2019-01-24T07:36:23.227Z,99.99
2019-01-24T07:37:22.973Z,99.99
2019-01-24T07:38:23.200Z,99.99
2019-01-24T07:39:23.184Z,99.99
2019-01-24T07:40:23.185Z,99.99
2019-01-24T07:41:23.162Z,99.99
2019-01-24T07:42:22.906Z,99.99
2019-01-24T07:43:22.879Z,99.99
2019-01-24T07:44:23.140Z,99.99
2019-01-24T07:45:23.093Z,99.99
2019-01-24T07:46:22.834Z,99.99
2019-01-24T07:47:23.086Z,99.99
2019-01-24T07:48:22.812Z,99.99
2019-01-24T07:49:22.800Z,99.99
2019-01-24T07:50:22.799Z,99.99
2019-01-24T07:51:23.012Z,99.99
2019-01-24T07:52:23.003Z,99.99
2019-01-24T07:53:22.994Z,99.99
2019-01-24T07:54:22.978Z,99.99
2019-01-24T07:55:22.967Z,99.99
2019-01-24T07:56:22.713Z,99.99
2019-01-24T07:57:22.681Z,99.99
2019-01-24T07:58:22.920Z,99.99
2019-01-24T07:59:22.655Z,99.99
2019-01-24T08:00:22.647Z,99.99
2019-01-24T08:01:22.633Z,99.99
2019-01-24T08:02:22.861Z,99.99
2019-01-24T08:03:22.602Z,99.99
2019-01-24T08:04:22.836Z,99.99
2019-01-24T08:05:22.823Z,99.99
2019-01-24T08:06:22.811Z,99.99
2019-01-24T08:07:22.549Z,99.99
2019-01-24T08:08:22.788Z,99.99
2019-01-24T08:09:22.787Z,99.99
2019-01-24T08:10:22.502Z,99.99
2019-01-24T08:11:22.740Z,99.99
2019-01-24T08:12:22.726Z,99.99
2019-01-24T08:13:22.485Z,99.99
2019-01-24T08:14:22.691Z,99.99
2019-01-24T08:15:22.694Z,99.99
2019-01-24T08:16:22.426Z,99.99
2019-01-24T08:17:22.410Z,99.99
2019-01-24T08:18:22.640Z,99.99
2019-01-24T08:19:22.638Z,99.99
2019-01-24T08:20:22.362Z,99.99
2019-01-24T08:21:22.350Z,99.99
2019-01-24T08:22:22.602Z,99.99
2019-01-24T08:23:22.582Z,99.99
2019-01-24T08:24:22.311Z,99.99
2019-01-24T08:25:22.297Z,99.99
2019-01-24T08:26:22.281Z,99.99
2019-01-24T08:27:22.555Z,99.99
2019-01-24T08:28:22.264Z,99.99
2019-01-24T08:29:22.541Z,99.99
2019-01-24T08:30:22.477Z,99.99
2019-01-24T08:31:22.211Z,99.99
2019-01-24T08:32:22.472Z,99.99
2019-01-24T08:33:22.209Z,99.99
2019-01-24T08:34:22.422Z,99.99
2019-01-24T08:35:22.460Z,99.99
2019-01-24T08:36:22.422Z,99.99
2019-01-24T08:37:22.137Z,99.99
2019-01-24T08:38:22.378Z,99.99
2019-01-24T08:39:22.356Z,99.99
2019-01-24T08:40:22.405Z,99.99
2019-01-24T08:41:22.366Z,99.99
2019-01-24T08:42:22.317Z,99.99
2019-01-24T08:43:22.314Z,99.99
2019-01-24T08:44:22.288Z,99.99
2019-01-24T08:45:22.071Z,99.99
2019-01-24T08:46:22.278Z,99.99
2019-01-24T08:47:22.245Z,99.65
2019-01-24T08:48:21.996Z,99.99
2019-01-24T08:49:21.974Z,99.99
2019-01-24T08:50:22.209Z,99.75
2019-01-24T08:51:22.200Z,99.65
2019-01-24T08:52:22.762Z,98.8
2019-01-24T08:53:21.928Z,98.24
2019-01-24T08:54:22.155Z,98.33
2019-01-24T08:55:22.143Z,98.33
2019-01-24T08:56:22.142Z,98.05
2019-01-24T08:57:21.902Z,97.86
2019-01-24T08:58:22.103Z,98.05
2019-01-24T08:59:22.091Z,97.96
2019-01-24T09:00:21.855Z,97.1
2019-01-24T09:01:21.817Z,97.77
2019-01-24T09:02:22.061Z,97.58
2019-01-24T09:03:22.046Z,97.1
2019-01-24T09:04:21.779Z,97.86
2019-01-24T09:05:22.028Z,97.58
2019-01-24T09:06:25.210Z,97.86
2019-01-24T09:07:21.759Z,97.96
2019-01-24T09:08:21.747Z,98.05
2019-01-24T09:09:21.970Z,98.43
2019-01-24T09:10:21.736Z,98.33
2019-01-24T09:11:21.958Z,98.05
2019-01-24T09:12:21.682Z,97.29
2019-01-24T09:13:21.927Z,97.34
2019-01-24T09:14:21.896Z,97.25
2019-01-24T09:15:21.638Z,97.44
2019-01-24T09:16:21.879Z,97.53
2019-01-24T09:17:21.864Z,97.34
2019-01-24T09:18:21.599Z,96.49
2019-01-24T09:19:21.840Z,96.78
2019-01-24T09:20:21.824Z,95.73
2019-01-24T09:21:21.811Z,94.79
2019-01-24T09:22:21.895Z,95.92
2019-01-24T09:23:21.546Z,95.73
2019-01-24T09:24:21.784Z,96.3
2019-01-24T09:25:21.768Z,96.4
2019-01-24T09:26:21.754Z,94.98
2019-01-24T09:27:21.740Z,94.51
2019-01-24T09:28:21.739Z,94.6
2019-01-24T09:29:21.719Z,94.13
2019-01-24T09:30:21.712Z,93.09
2019-01-24T09:31:21.439Z,93.37
2019-01-24T09:32:21.700Z,94.13
2019-01-24T09:33:21.675Z,94.89
2019-01-24T09:34:21.668Z,95.07
2019-01-24T09:35:21.640Z,93.94
2019-01-24T09:36:21.384Z,94.51
2019-01-24T09:37:21.368Z,94.79
2019-01-24T09:38:21.359Z,94.13
2019-01-24T09:39:21.348Z,93.66
2019-01-24T09:40:21.593Z,93.84
2019-01-24T09:41:21.583Z,93.94
2019-01-24T09:42:21.572Z,93.94
2019-01-24T09:43:21.297Z,93.56
2019-01-24T09:44:21.310Z,93.37
2019-01-24T09:45:21.524Z,93.37
2019-01-24T09:46:21.263Z,93.47
2019-01-24T09:47:21.497Z,93.28
2019-01-24T09:48:21.493Z,92.8
2019-01-24T09:49:21.500Z,92.05
2019-01-24T09:50:21.469Z,91.05
2019-01-24T09:51:21.462Z,90.82
2019-01-24T09:52:21.445Z,91.01
2019-01-24T09:53:21.180Z,91.2
2019-01-24T09:54:21.170Z,91.91
2019-01-24T09:55:21.423Z,90.54
2019-01-24T09:56:21.400Z,90.63
2019-01-24T09:57:21.143Z,91.01
2019-01-24T09:58:21.379Z,92.05
2019-01-24T09:59:21.365Z,92.71
2019-01-24T10:00:21.355Z,92
2019-01-24T10:01:21.356Z,91.24
2019-01-24T10:02:21.335Z,91.34
2019-01-24T10:03:21.071Z,91.05
2019-01-24T10:04:21.311Z,91.15
2019-01-24T10:05:21.053Z,91.15
2019-01-24T10:06:21.037Z,92.1
2019-01-24T10:07:21.269Z,92.38
2019-01-24T10:08:21.016Z,91.72
2019-01-24T10:09:21.204Z,90.77
2019-01-24T10:10:21.315Z,91.05
2019-01-24T10:11:25.933Z,90.82
2019-01-24T10:12:21.225Z,90.54
2019-01-24T10:13:21.206Z,91.01
2019-01-24T10:14:21.213Z,90.44
2019-01-24T10:15:21.179Z,90.44
2019-01-24T10:16:20.927Z,89.78
2019-01-24T10:17:21.151Z,89.78
2019-01-24T10:18:23.921Z,90.16
2019-01-24T10:19:21.151Z,90.44
2019-01-24T10:20:20.908Z,90.63
2019-01-24T10:21:21.114Z,91.01
2019-01-24T10:22:21.338Z,90.82
2019-01-24T10:23:20.842Z,90.82
2019-01-24T10:24:20.827Z,90.44
2019-01-24T10:25:21.079Z,90.82
2019-01-24T10:26:21.109Z,90.54
2019-01-24T10:27:21.054Z,91.01
2019-01-24T10:28:21.052Z,90.35
2019-01-24T10:29:20.773Z,90.82
2019-01-24T10:30:21.020Z,91.67
2019-01-24T10:31:21.006Z,92.05
2019-01-24T10:32:20.999Z,92.61
2019-01-24T10:33:21.002Z,92.71
2019-01-24T10:34:20.723Z,92.52
2019-01-24T10:35:20.956Z,93.28
2019-01-24T10:36:20.935Z,93.37
2019-01-24T10:37:20.954Z,93.84
2019-01-24T10:38:20.664Z,93.66
2019-01-24T10:39:20.669Z,93.28
2019-01-24T10:40:20.979Z,93.09
2019-01-24T10:41:20.883Z,93.75
2019-01-24T10:42:20.879Z,93.28
2019-01-24T10:43:20.859Z,93.28
2019-01-24T10:44:21.712Z,92.52
2019-01-24T10:45:20.584Z,92.14
2019-01-24T10:46:20.633Z,92.05
2019-01-24T10:47:20.868Z,92.05
2019-01-24T10:48:20.803Z,92.61
2019-01-24T10:49:20.537Z,91.86
2019-01-24T10:50:20.806Z,91.86
2019-01-24T10:51:20.766Z,91.01
2019-01-24T10:52:20.908Z,90.73
2019-01-24T10:53:20.772Z,91.39
2019-01-24T10:54:20.731Z,91.86
2019-01-24T10:55:20.718Z,91.67
2019-01-24T10:56:20.708Z,91.67
2019-01-24T10:57:20.701Z,92.14
2019-01-24T10:58:20.453Z,91.86
2019-01-24T10:59:20.678Z,91.67
2019-01-24T11:00:20.677Z,91.86
2019-01-24T11:01:20.662Z,90.91
2019-01-24T11:02:20.641Z,90.91
2019-01-24T11:03:20.639Z,91.01
2019-01-24T11:04:20.629Z,90.68
2019-01-24T11:05:20.379Z,90.2
2019-01-24T11:06:20.342Z,88.6
2019-01-24T11:07:20.577Z,88.5
2019-01-24T11:08:20.568Z,88.69
2019-01-24T11:09:20.574Z,88.6
2019-01-24T11:10:20.557Z,89.07
2019-01-24T11:11:20.536Z,88.79
2019-01-24T11:12:20.526Z,89.07
2019-01-24T11:13:20.263Z,90.01
2019-01-24T11:14:20.262Z,91.15
2019-01-24T11:15:20.238Z,90.77
2019-01-24T11:16:20.477Z,88.31
2019-01-24T11:17:20.467Z,87.84
2019-01-24T11:18:20.458Z,87.84
2019-01-24T11:19:20.996Z,89.17
2019-01-24T11:20:20.194Z,90.01
2019-01-24T11:21:20.173Z,90.39
2019-01-24T11:22:20.175Z,90.01
2019-01-24T11:23:20.412Z,90.3
2019-01-24T11:24:20.394Z,90.11
2019-01-24T11:25:20.390Z,89.83
2019-01-24T11:26:20.373Z,88.41
2019-01-24T11:27:20.110Z,88.22
2019-01-24T11:28:20.097Z,88.31
2019-01-24T11:29:20.339Z,87.65
2019-01-24T11:30:20.314Z,88.31
2019-01-24T11:31:20.330Z,89.07
2019-01-24T11:32:20.299Z,88.12
2019-01-24T11:33:20.047Z,88.31
2019-01-24T11:34:20.035Z,88.22
2019-01-24T11:35:20.259Z,89.26
2019-01-24T11:36:20.253Z,88.69
2019-01-24T11:37:20.237Z,88.22
2019-01-24T11:38:20.227Z,88.41
2019-01-24T11:39:20.227Z,88.03
2019-01-24T11:40:19.961Z,88.5
2019-01-24T11:41:20.201Z,87.74
2019-01-24T11:42:20.180Z,87.93
2019-01-24T11:43:20.174Z,86.42
2019-01-24T11:44:19.913Z,86.8
2019-01-24T11:45:20.141Z,86.8
2019-01-24T11:46:20.138Z,87.37
2019-01-24T11:47:19.878Z,87.93
2019-01-24T11:48:20.121Z,88.69
2019-01-24T11:49:20.101Z,89.26
2019-01-24T11:50:20.099Z,90.01
2019-01-24T11:51:20.084Z,89.83
2019-01-24T11:52:20.112Z,88.5
2019-01-24T11:53:19.820Z,88.93
2019-01-24T11:54:20.048Z,90.01
2019-01-24T11:55:19.787Z,89.83
2019-01-24T11:56:19.773Z,89.17
2019-01-24T11:57:19.757Z,89.12
2019-01-24T11:58:19.999Z,89.03
2019-01-24T11:59:19.990Z,89.12
2019-01-24T12:00:19.736Z,88.93
2019-01-24T12:01:22.417Z,89.78
2019-01-24T12:02:19.958Z,90.91
2019-01-24T12:03:19.938Z,91.2
2019-01-24T12:04:19.926Z,92.14
2019-01-24T12:05:19.921Z,91.48
2019-01-24T12:06:19.652Z,91.77
2019-01-24T12:07:19.643Z,91.67
2019-01-24T12:08:19.885Z,91.29
2019-01-24T12:09:19.875Z,91.67
2019-01-24T12:10:19.858Z,92.14
2019-01-24T12:11:19.858Z,92.61
2019-01-24T12:12:19.832Z,92.8
2019-01-24T12:13:19.570Z,92.52
2019-01-24T12:14:19.815Z,92.71
2019-01-24T12:15:19.792Z,93.56
2019-01-24T12:16:19.792Z,93.47
2019-01-24T12:17:19.777Z,94.41
2019-01-24T12:18:19.765Z,94.03
2019-01-24T12:19:19.501Z,92.24
2019-01-24T12:20:19.493Z,92.43
2019-01-24T12:21:19.726Z,92.05
2019-01-24T12:22:19.705Z,91.96
2019-01-24T12:23:19.449Z,92.43
2019-01-24T12:24:19.687Z,92.99
2019-01-24T12:25:19.668Z,93.28
2019-01-24T12:26:19.670Z,94.51
2019-01-24T12:27:19.654Z,94.79
2019-01-24T12:28:19.639Z,94.32
2019-01-24T12:29:19.626Z,93.28
2019-01-24T12:30:19.609Z,93.84
2019-01-24T12:31:19.347Z,94.13
2019-01-24T12:32:19.575Z,93.94
2019-01-24T12:33:19.338Z,94.03
2019-01-24T12:34:19.556Z,94.03
2019-01-24T12:35:19.548Z,94.13
2019-01-24T12:36:19.565Z,93.94
2019-01-24T12:37:19.273Z,93.56
2019-01-24T12:38:19.508Z,93.66
2019-01-24T12:39:19.521Z,93.84
2019-01-24T12:40:20.304Z,94.22
2019-01-24T12:41:19.466Z,94.03
2019-01-24T12:42:19.204Z,94.32
2019-01-24T12:43:19.207Z,94.79
2019-01-24T12:44:19.438Z,95.54
2019-01-24T12:45:19.513Z,95.07
2019-01-24T12:46:19.411Z,95.73
2019-01-24T12:47:19.397Z,95.73
2019-01-24T12:48:19.377Z,95.78
2019-01-24T12:49:19.366Z,96.73
2019-01-24T12:50:19.106Z,97.29
2019-01-24T12:51:19.341Z,97.77
2019-01-24T12:52:19.325Z,97.91
2019-01-24T12:53:19.319Z,97.06